createdAt,value
2022-07-26T00:05:22.275Z,100620.13
2022-07-26T00:13:43.943Z,100617.34
2022-07-26T00:22:24.158Z,100632.97
2022-07-26T00:30:50.608Z,100636.47
2022-07-26T00:39:15.475Z,100629.13
2022-07-26T00:47:39.613Z,100637.28
2022-07-26T00:56:02.660Z,100641.75
2022-07-26T01:04:24.568Z,100637.84
2022-07-26T01:12:46.814Z,100632.59
2022-07-26T01:21:13.273Z,100631.03
2022-07-26T01:29:36.266Z,100623.97
2022-07-26T01:37:57.942Z,100637.50
2022-07-26T01:46:19.542Z,100643.47
2022-07-26T01:54:41.097Z,100638.63
2022-07-26T02:03:02.651Z,100641.19
2022-07-26T02:11:24.215Z,100644.59
2022-07-26T02:19:45.726Z,100645.97
2022-07-26T02:28:07.202Z,100648.31
2022-07-26T02:36:28.702Z,100649.66
2022-07-26T02:44:50.343Z,100651.16
2022-07-26T02:53:11.762Z,100651.63
2022-07-26T03:01:35.307Z,100652.72
2022-07-26T03:09:56.800Z,100662.47
2022-07-26T03:18:18.295Z,100659.56
2022-07-26T03:26:39.800Z,100666.41
2022-07-26T03:35:01.317Z,100677.44
2022-07-26T03:43:23.517Z,100665.53
2022-07-26T03:51:45.468Z,100672.06
2022-07-26T04:00:07.415Z,100662.97
2022-07-26T04:08:29.609Z,100669.41
2022-07-26T04:16:51.233Z,100675.56
2022-07-26T04:25:12.794Z,100678.97
2022-07-26T04:33:34.359Z,100680.50
2022-07-26T04:41:55.812Z,100684.03
2022-07-26T04:50:17.899Z,100674.84
2022-07-26T04:58:39.408Z,100691.44
2022-07-26T05:07:02.608Z,100684.81
2022-07-26T05:15:24.103Z,100681.13
2022-07-26T05:23:46.118Z,100674.69
2022-07-26T05:32:07.718Z,100675.06
2022-07-26T05:40:29.227Z,100675.63
2022-07-26T05:48:50.743Z,100678.13
2022-07-26T05:57:12.240Z,100678.84
2022-07-26T06:05:33.868Z,100680.91
2022-07-26T06:13:56.710Z,100705.44
2022-07-26T06:22:18.239Z,100705.88
2022-07-26T06:30:39.757Z,100706.56
2022-07-26T06:39:01.434Z,100709.53
2022-07-26T06:47:22.855Z,100713.88
2022-07-26T06:55:44.283Z,100712.72
2022-07-26T07:04:07.493Z,100717.34
2022-07-26T07:12:29.159Z,100717.78
2022-07-26T07:20:50.630Z,100714.78
2022-07-26T07:29:14.753Z,100730.75
2022-07-26T07:37:52.704Z,100757.84
2022-07-26T07:46:15.473Z,100774.94
2022-07-26T07:54:37.011Z,100773.25
2022-07-26T08:02:58.511Z,100768.31
2022-07-26T08:11:19.978Z,100783.41
2022-07-26T08:19:42.314Z,100779.06
2022-07-26T08:28:04.371Z,100785.13
2022-07-26T08:36:31.962Z,100792.09
2022-07-26T08:44:54.422Z,100790.16
2022-07-26T08:53:16.867Z,100818.28
2022-07-26T09:01:50.347Z,100866.16
2022-07-26T09:10:15.166Z,100877.66
2022-07-26T09:18:36.622Z,100875.53
2022-07-26T09:26:58.913Z,100890.78
2022-07-26T09:35:50.063Z,100899.84
2022-07-26T09:44:04.728Z,100908.78
2022-07-26T09:52:26.578Z,100910.72
2022-07-26T10:00:48.649Z,100927.38
2022-07-26T10:09:11.266Z,100935.72
2022-07-26T10:17:41.954Z,100942.06
2022-07-26T10:26:04.278Z,100956.81
2022-07-26T10:34:33.916Z,100967.09
2022-07-26T10:43:30.209Z,100989.97
2022-07-26T10:51:48.235Z,100973.09
2022-07-26T11:00:11.407Z,100973.47
2022-07-26T11:08:33.239Z,100992.38
2022-07-26T11:16:55.416Z,101005.59
2022-07-26T11:25:21.304Z,101016.16
2022-07-26T11:33:44.044Z,101022.25
2022-07-26T11:42:06.914Z,101026.41
2022-07-26T11:50:28.871Z,101045.94
2022-07-26T11:58:50.990Z,101048.22
2022-07-26T12:07:16.580Z,101046.75
2022-07-26T12:15:45.074Z,101053.41
2022-07-26T12:24:07.422Z,101062.72
2022-07-26T12:32:34.842Z,101051.38
2022-07-26T12:40:56.666Z,101049.22
2022-07-26T12:49:18.390Z,101054.06
2022-07-26T12:57:41.434Z,101047.75
2022-07-26T13:06:09.581Z,101054.94
2022-07-26T13:14:34.775Z,101051.13
2022-07-26T13:22:56.312Z,101059.59
2022-07-26T13:31:18.589Z,101069.41
2022-07-26T13:39:40.550Z,101075.28
2022-07-26T13:48:02.588Z,101082.81
2022-07-26T14:24:25.656Z,101101.34
2022-07-26T14:32:47.827Z,101099.22
2022-07-26T14:41:10.168Z,101093.25
2022-07-26T14:49:31.846Z,101103.34
2022-07-26T14:57:55.786Z,101106.03
2022-07-26T15:06:17.765Z,101114.56
2022-07-26T15:14:39.733Z,101136.78
2022-07-26T15:23:04.606Z,101142.09
2022-07-26T15:31:36.690Z,101136.75
2022-07-26T15:40:00.852Z,101134.88
2022-07-26T15:48:22.839Z,101142.44
2022-07-26T15:56:44.856Z,101149.53
2022-07-26T16:05:06.956Z,101146.59
2022-07-26T16:13:28.815Z,101145.84
2022-07-26T16:21:51.066Z,101146.84
2022-07-26T16:30:13.456Z,101155.06
2022-07-26T16:47:04.376Z,101162.63
2022-07-26T16:55:41.755Z,101154.53
2022-07-26T17:04:03.412Z,101175.81
2022-07-26T17:12:25.261Z,101172.00
2022-07-26T17:20:46.996Z,101178.22
2022-07-26T17:29:12.295Z,101177.97
2022-07-26T17:37:37.146Z,101201.63
2022-07-26T17:45:59.379Z,101189.75
2022-07-26T17:54:21.700Z,101203.97
2022-07-26T18:30:32.305Z,101219.44
2022-07-26T18:38:53.978Z,101227.53
2022-07-26T18:47:15.655Z,101243.84
2022-07-26T18:55:42.205Z,101247.31
2022-07-26T19:13:37.791Z,101255.00
2022-07-26T19:21:59.928Z,101266.25
2022-07-26T19:30:22.934Z,101256.41
2022-07-26T19:38:46.243Z,101264.88
2022-07-26T19:47:08.065Z,101261.59
2022-07-26T19:55:30.205Z,101276.81
2022-07-26T20:03:51.988Z,101285.88
2022-07-26T20:12:13.695Z,101290.16
2022-07-26T20:20:35.385Z,101284.44
2022-07-26T20:28:58.196Z,101280.78
2022-07-26T20:37:19.775Z,101293.97
2022-07-26T20:45:41.491Z,101286.66
2022-07-26T20:54:03.949Z,101282.72
2022-07-26T21:02:26.906Z,101291.66
2022-07-26T21:10:48.751Z,101302.47
2022-07-26T21:19:10.707Z,101309.81
2022-07-26T21:27:32.649Z,101313.13
2022-07-26T21:35:54.355Z,101315.56
2022-07-26T21:44:16.343Z,101323.19
2022-07-26T21:52:38.067Z,101333.69
2022-07-26T22:01:07.037Z,101339.03
2022-07-26T22:09:28.958Z,101341.00
2022-07-26T22:17:50.619Z,101340.28
2022-07-26T22:26:12.305Z,101332.47
2022-07-26T22:34:33.936Z,101341.56
2022-07-26T22:42:58.652Z,101325.84
2022-07-26T22:51:20.438Z,101328.34
2022-07-26T22:59:42.417Z,101340.16
2022-07-26T23:08:18.380Z,101331.13
2022-07-26T23:16:46.904Z,101319.47
2022-07-26T23:25:08.815Z,101324.78
2022-07-26T23:33:50.739Z,101338.75
2022-07-26T23:42:12.157Z,101340.00
2022-07-26T23:50:33.761Z,101345.03
2022-07-26T23:58:55.436Z,101327.06
